createdAt,value
2023-01-09T00:00:15.836Z,981.36
2023-01-09T00:01:15.764Z,981.35
2023-01-09T00:02:15.838Z,981.36
2023-01-09T00:03:15.758Z,981.36
2023-01-09T00:04:16.005Z,981.37
2023-01-09T00:05:15.710Z,981.36
2023-01-09T00:06:15.715Z,981.33
2023-01-09T00:07:15.685Z,981.37
2023-01-09T00:08:15.799Z,981.38
2023-01-09T00:09:15.683Z,981.38
2023-01-09T00:10:15.683Z,981.36
2023-01-09T00:11:15.656Z,981.34
2023-01-09T00:12:15.640Z,981.34
2023-01-09T00:13:15.828Z,981.35
2023-01-09T00:14:15.643Z,981.31
2023-01-09T00:15:15.876Z,981.26
2023-01-09T00:16:15.619Z,981.27
2023-01-09T00:17:15.588Z,981.26
2023-01-09T00:18:15.586Z,981.22
2023-01-09T00:19:15.564Z,981.28
2023-01-09T00:20:15.582Z,981.29
2023-01-09T00:21:15.608Z,981.30
2023-01-09T00:22:15.596Z,981.34
2023-01-09T00:23:15.566Z,981.35
2023-01-09T00:24:15.516Z,981.38
2023-01-09T00:25:15.546Z,981.41
2023-01-09T00:26:15.718Z,981.33
2023-01-09T00:27:15.564Z,981.42
2023-01-09T00:28:15.524Z,981.36
2023-01-09T00:29:15.451Z,981.36
2023-01-09T00:30:15.480Z,981.38
2023-01-09T00:31:15.465Z,981.31
2023-01-09T00:32:15.435Z,981.40
2023-01-09T00:33:15.415Z,981.40
2023-01-09T00:34:15.425Z,981.34
2023-01-09T00:35:15.487Z,981.38
2023-01-09T00:36:15.400Z,981.36
2023-01-09T00:37:15.540Z,981.37
2023-01-09T00:39:27.104Z,981.30
2023-01-09T00:40:28.108Z,981.28
2023-01-09T00:41:28.119Z,981.29
2023-01-09T00:42:28.164Z,981.27
2023-01-09T00:43:28.140Z,981.30
2023-01-09T00:44:28.114Z,981.30
2023-01-09T00:45:27.981Z,981.34
2023-01-09T00:46:27.965Z,981.39
2023-01-09T00:47:27.992Z,981.51
2023-01-09T00:48:27.941Z,981.49
2023-01-09T00:49:27.939Z,981.47
2023-01-09T00:50:27.938Z,981.49
2023-01-09T00:51:27.903Z,981.50
2023-01-09T00:52:35.862Z,981.55
2023-01-09T00:53:27.883Z,981.50
2023-01-09T00:54:27.889Z,981.46
2023-01-09T00:55:27.864Z,981.49
2023-01-09T00:56:27.912Z,981.48
2023-01-09T00:57:27.834Z,981.50
2023-01-09T00:58:27.872Z,981.51
2023-01-09T00:59:27.826Z,981.55
2023-01-09T01:00:27.814Z,981.51
2023-01-09T01:01:27.984Z,981.51
2023-01-09T01:02:27.916Z,981.50
2023-01-09T01:03:28.107Z,981.51
2023-01-09T01:04:27.899Z,981.54
2023-01-09T01:05:27.992Z,981.50
2023-01-09T01:06:27.754Z,981.50
2023-01-09T01:07:27.732Z,981.52
2023-01-09T01:08:27.751Z,981.51
2023-01-09T01:09:27.711Z,981.48
2023-01-09T01:10:27.724Z,981.47
2023-01-09T01:11:27.731Z,981.47
2023-01-09T01:12:27.690Z,981.49
2023-01-09T01:13:35.346Z,981.40
2023-01-09T01:14:28.121Z,981.42
2023-01-09T01:15:27.645Z,981.42
2023-01-09T01:16:27.769Z,981.41
2023-01-09T01:17:27.681Z,981.42
2023-01-09T01:18:27.702Z,981.40
2023-01-09T01:19:27.632Z,981.44
2023-01-09T01:20:27.601Z,981.44
2023-01-09T01:21:34.109Z,981.45
2023-01-09T01:22:27.582Z,981.47
2023-01-09T01:23:27.601Z,981.51
2023-01-09T01:24:27.562Z,981.49
2023-01-09T01:25:27.557Z,981.50
2023-01-09T01:26:27.552Z,981.49
2023-01-09T01:27:27.519Z,981.49
2023-01-09T01:28:27.526Z,981.52
2023-01-09T01:29:27.508Z,981.48
2023-01-09T01:30:27.591Z,981.45
2023-01-09T01:31:27.504Z,981.44
2023-01-09T01:32:27.478Z,981.42
2023-01-09T01:33:27.555Z,981.42
2023-01-09T01:34:27.513Z,981.40
2023-01-09T01:35:27.449Z,981.39
2023-01-09T01:36:27.446Z,981.42
2023-01-09T01:37:27.412Z,981.41
2023-01-09T01:38:27.416Z,981.42
2023-01-09T01:39:27.449Z,981.42
2023-01-09T01:40:27.398Z,981.41
2023-01-09T01:41:27.372Z,981.43
2023-01-09T01:42:27.374Z,981.42
2023-01-09T01:43:27.377Z,981.45
2023-01-09T01:44:27.375Z,981.47
2023-01-09T01:45:27.322Z,981.47
2023-01-09T01:46:27.343Z,981.49
2023-01-09T01:47:27.316Z,981.46
2023-01-09T01:48:27.310Z,981.47
2023-01-09T01:49:27.295Z,981.47
2023-01-09T01:50:27.299Z,981.47
2023-01-09T01:51:27.272Z,981.49
2023-01-09T01:52:27.336Z,981.49
2023-01-09T01:54:45.897Z,981.53
2023-01-09T01:55:46.767Z,981.60
2023-01-09T01:56:46.586Z,981.72
2023-01-09T01:57:46.494Z,981.63
2023-01-09T01:58:52.995Z,981.67
2023-01-09T01:59:46.471Z,981.67
2023-01-09T02:00:46.515Z,981.69
2023-01-09T02:01:46.526Z,981.65
2023-01-09T02:02:46.491Z,981.64
2023-01-09T02:03:46.455Z,981.62
2023-01-09T02:04:46.444Z,981.62
2023-01-09T02:05:46.414Z,981.58
2023-01-09T02:06:46.401Z,981.58
2023-01-09T02:07:46.414Z,981.62
2023-01-09T02:08:46.398Z,981.60
2023-01-09T02:09:46.381Z,981.60
2023-01-09T02:10:46.387Z,981.60
2023-01-09T02:11:46.357Z,981.60
2023-01-09T02:12:46.382Z,981.61
2023-01-09T02:13:46.350Z,981.62
2023-01-09T02:14:46.350Z,981.64
2023-01-09T02:15:46.350Z,981.62
2023-01-09T02:16:46.281Z,981.61
2023-01-09T02:17:46.320Z,981.62
2023-01-09T02:18:46.307Z,981.60
2023-01-09T02:19:46.266Z,981.59
2023-01-09T02:20:46.254Z,981.60
2023-01-09T02:21:46.248Z,981.61
2023-01-09T02:22:46.250Z,981.65
2023-01-09T02:23:46.260Z,981.64
2023-01-09T02:24:46.249Z,981.67
2023-01-09T02:25:46.256Z,981.68
2023-01-09T02:26:46.266Z,981.67
2023-01-09T02:27:46.187Z,981.70
2023-01-09T02:28:46.206Z,981.66
2023-01-09T02:29:46.199Z,981.63
2023-01-09T02:30:46.156Z,981.66
2023-01-09T02:31:46.219Z,981.66
2023-01-09T02:34:03.075Z,981.67
2023-01-09T02:35:03.919Z,981.70
2023-01-09T02:36:03.954Z,981.70
2023-01-09T02:37:04.148Z,981.67
2023-01-09T02:38:03.880Z,981.66
2023-01-09T02:39:03.884Z,981.67
2023-01-09T02:40:03.919Z,981.70
2023-01-09T02:41:03.846Z,981.70
2023-01-09T02:42:03.873Z,981.70
2023-01-09T02:43:03.863Z,981.65
2023-01-09T02:44:03.807Z,981.67
2023-01-09T02:45:03.838Z,981.67
2023-01-09T02:46:03.884Z,981.66
2023-01-09T02:47:03.796Z,981.69
2023-01-09T02:48:03.804Z,981.70
2023-01-09T02:49:03.772Z,981.72
2023-01-09T02:50:03.752Z,981.72
2023-01-09T02:51:03.751Z,981.76
2023-01-09T02:52:03.734Z,981.76
2023-01-09T02:53:03.761Z,981.78
2023-01-09T02:54:03.715Z,981.74
2023-01-09T02:55:03.762Z,981.73
2023-01-09T02:56:03.688Z,981.72
2023-01-09T02:57:03.684Z,981.70
2023-01-09T02:58:03.693Z,981.70
2023-01-09T02:59:03.833Z,981.70
2023-01-09T03:00:03.697Z,981.72
2023-01-09T03:01:03.792Z,981.70
2023-01-09T03:02:03.786Z,981.74
2023-01-09T03:03:03.778Z,981.73
2023-01-09T03:04:03.635Z,981.72
2023-01-09T03:05:03.597Z,981.72
2023-01-09T03:06:03.592Z,981.71
2023-01-09T03:07:03.597Z,981.69
2023-01-09T03:08:04.309Z,981.68
2023-01-09T03:09:03.595Z,981.66
2023-01-09T03:10:03.547Z,981.69
2023-01-09T03:11:03.538Z,981.68
2023-01-09T03:12:03.593Z,981.73
2023-01-09T03:13:03.536Z,981.76
2023-01-09T03:14:03.504Z,981.78
2023-01-09T03:15:03.495Z,981.75
2023-01-09T03:16:03.520Z,981.79
2023-01-09T03:17:03.477Z,981.81
2023-01-09T03:18:03.473Z,981.81
2023-01-09T03:19:03.465Z,981.82
2023-01-09T03:20:03.443Z,981.94
2023-01-09T03:21:03.446Z,981.97
2023-01-09T03:22:03.425Z,981.90
2023-01-09T03:23:03.435Z,981.92
2023-01-09T03:24:03.391Z,981.94
2023-01-09T03:25:03.402Z,981.95
2023-01-09T03:26:03.379Z,981.94
2023-01-09T03:27:03.364Z,981.90
2023-01-09T03:28:03.355Z,981.94
2023-01-09T03:29:03.361Z,981.95
2023-01-09T03:30:03.316Z,981.94
2023-01-09T03:31:03.323Z,981.97
2023-01-09T03:32:03.311Z,982.03
2023-01-09T03:33:03.365Z,982.02
2023-01-09T03:34:03.311Z,982.04
2023-01-09T03:35:03.298Z,982.05
2023-01-09T03:36:03.262Z,982.06
2023-01-09T03:37:03.257Z,982.08
2023-01-09T03:38:03.251Z,982.07
2023-01-09T03:39:03.263Z,982.13
2023-01-09T03:40:03.228Z,982.18
2023-01-09T03:41:03.245Z,982.22
2023-01-09T03:42:03.206Z,982.23
2023-01-09T03:43:03.199Z,982.24
2023-01-09T03:44:03.203Z,982.28
2023-01-09T03:45:03.188Z,982.30
2023-01-09T03:46:03.186Z,982.32
2023-01-09T03:47:03.163Z,982.44
2023-01-09T03:48:03.139Z,982.38
2023-01-09T03:49:03.144Z,982.44
2023-01-09T03:50:03.107Z,982.43
2023-01-09T03:51:03.134Z,982.44
2023-01-09T03:52:03.113Z,982.47
2023-01-09T03:53:03.128Z,982.43
2023-01-09T03:54:03.084Z,982.44
2023-01-09T03:55:03.068Z,982.41
2023-01-09T03:56:03.052Z,982.45
2023-01-09T03:57:03.052Z,982.42
2023-01-09T03:58:03.024Z,982.41
2023-01-09T03:59:03.030Z,982.45
2023-01-09T04:00:03.279Z,982.46
2023-01-09T04:01:03.170Z,982.50
2023-01-09T04:02:04.112Z,982.49
2023-01-09T04:03:02.998Z,982.49
2023-01-09T04:04:03.118Z,982.49
2023-01-09T04:05:02.971Z,982.49
2023-01-09T04:06:03.127Z,982.51
2023-01-09T04:07:03.456Z,982.54
2023-01-09T04:08:02.956Z,982.52
2023-01-09T04:09:03.029Z,982.54
2023-01-09T04:10:03.137Z,982.57
2023-01-09T04:11:03.007Z,982.57
2023-01-09T04:12:03.149Z,982.54
2023-01-09T04:13:03.234Z,982.58
2023-01-09T04:14:02.845Z,982.60
2023-01-09T04:15:02.879Z,982.59
2023-01-09T04:16:02.945Z,982.56
2023-01-09T04:17:02.867Z,982.55
2023-01-09T04:18:02.863Z,982.56
2023-01-09T04:19:02.835Z,982.57
2023-01-09T04:20:02.837Z,982.57
2023-01-09T04:21:02.885Z,982.55
2023-01-09T04:22:02.797Z,982.56
2023-01-09T04:23:02.789Z,982.55
2023-01-09T04:24:02.812Z,982.56
2023-01-09T04:25:02.740Z,982.59
2023-01-09T04:26:02.778Z,982.58
2023-01-09T04:27:02.739Z,982.52
2023-01-09T04:28:02.727Z,982.53
2023-01-09T04:29:02.717Z,982.54
2023-01-09T04:30:02.694Z,982.56
2023-01-09T04:31:02.750Z,982.58
2023-01-09T04:32:02.709Z,982.56
2023-01-09T04:33:02.697Z,982.58
2023-01-09T04:34:02.647Z,982.55
2023-01-09T04:35:02.638Z,982.57
2023-01-09T04:36:02.642Z,982.55
2023-01-09T04:37:02.630Z,982.57
2023-01-09T04:38:02.597Z,982.55
2023-01-09T04:39:02.611Z,982.57
2023-01-09T04:40:02.585Z,982.58
2023-01-09T04:41:02.642Z,982.62
2023-01-09T04:42:02.566Z,982.64
2023-01-09T04:43:02.568Z,982.64
2023-01-09T04:44:02.534Z,982.67
2023-01-09T04:45:02.529Z,982.68
2023-01-09T04:46:02.545Z,982.71
2023-01-09T04:47:02.537Z,982.72
2023-01-09T04:48:02.563Z,982.74
2023-01-09T04:49:02.505Z,982.74
2023-01-09T04:50:02.481Z,982.77
2023-01-09T04:51:02.498Z,982.76
2023-01-09T04:52:02.457Z,982.79
2023-01-09T04:53:02.481Z,982.77
2023-01-09T04:54:02.490Z,982.75
2023-01-09T04:55:02.436Z,982.80
2023-01-09T04:56:02.411Z,982.80
2023-01-09T04:57:02.415Z,982.81
2023-01-09T04:58:02.491Z,982.81
2023-01-09T04:59:02.478Z,982.82
2023-01-09T05:00:02.417Z,982.83
2023-01-09T05:01:02.511Z,982.85
2023-01-09T05:02:02.515Z,982.84
2023-01-09T05:03:02.355Z,982.83
2023-01-09T05:04:02.410Z,982.88
2023-01-09T05:05:02.328Z,982.94
2023-01-09T05:06:02.407Z,982.92
2023-01-09T05:07:02.328Z,982.93
2023-01-09T05:08:02.360Z,982.95
2023-01-09T05:09:02.318Z,982.94
2023-01-09T05:10:02.286Z,982.98
2023-01-09T05:11:02.310Z,982.99
2023-01-09T05:12:02.257Z,982.99
2023-01-09T05:13:02.222Z,982.98
2023-01-09T05:14:02.286Z,982.94
2023-01-09T05:15:02.380Z,982.98
2023-01-09T05:16:02.215Z,982.93
2023-01-09T05:17:02.348Z,982.97
2023-01-09T05:18:02.172Z,983.01
2023-01-09T05:19:02.180Z,983.01
2023-01-09T05:20:02.221Z,983.03
2023-01-09T05:21:02.171Z,983.04
2023-01-09T05:22:02.126Z,983.04
2023-01-09T05:23:02.208Z,983.02
2023-01-09T05:24:02.159Z,983.04
2023-01-09T05:25:02.130Z,983.06
2023-01-09T05:26:02.160Z,983.07
2023-01-09T05:27:02.119Z,983.12
2023-01-09T05:28:02.137Z,983.16
2023-01-09T05:29:02.908Z,983.22
2023-01-09T05:30:02.097Z,983.24
2023-01-09T05:31:02.066Z,983.22
2023-01-09T05:32:02.024Z,983.24
2023-01-09T05:33:02.023Z,983.24
2023-01-09T05:34:02.000Z,983.25
2023-01-09T05:35:02.114Z,983.26
2023-01-09T05:36:02.044Z,983.26
2023-01-09T05:37:01.980Z,983.25
2023-01-09T05:38:01.995Z,983.26
2023-01-09T05:39:02.160Z,983.32
2023-01-09T05:40:02.052Z,983.29
2023-01-09T05:41:01.957Z,983.28
2023-01-09T05:42:01.951Z,983.25
2023-01-09T05:43:02.277Z,983.23
2023-01-09T05:44:01.948Z,983.24
2023-01-09T05:45:02.452Z,983.26
2023-01-09T05:46:01.977Z,983.21
2023-01-09T05:47:02.876Z,983.21
2023-01-09T05:48:02.049Z,983.20
2023-01-09T05:49:02.225Z,983.21
2023-01-09T05:50:01.862Z,983.20
2023-01-09T05:51:01.864Z,983.18
2023-01-09T05:52:01.818Z,983.18
2023-01-09T05:53:01.802Z,983.18
2023-01-09T05:54:01.790Z,983.19
2023-01-09T05:55:01.788Z,983.22
2023-01-09T05:56:01.784Z,983.22
2023-01-09T05:57:01.763Z,983.20
2023-01-09T05:58:01.761Z,983.21
2023-01-09T05:59:01.732Z,983.21
2023-01-09T06:00:01.772Z,983.19
2023-01-09T06:01:01.800Z,983.19
2023-01-09T06:02:01.762Z,983.21
2023-01-09T06:03:01.767Z,983.21
2023-01-09T06:04:01.688Z,983.23
2023-01-09T06:05:01.685Z,983.24
2023-01-09T06:06:01.691Z,983.22
2023-01-09T06:07:01.658Z,983.23
2023-01-09T06:08:01.639Z,983.21
2023-01-09T06:09:01.641Z,983.22
2023-01-09T06:10:01.731Z,983.19
2023-01-09T06:11:01.654Z,983.18
2023-01-09T06:12:01.644Z,983.18
2023-01-09T06:13:01.586Z,983.20
2023-01-09T06:14:01.693Z,983.17
2023-01-09T06:15:01.723Z,983.13
2023-01-09T06:16:01.694Z,983.16
2023-01-09T06:17:01.539Z,983.16
2023-01-09T06:18:03.829Z,983.13
2023-01-09T06:19:01.636Z,983.14
2023-01-09T06:20:01.786Z,983.12
2023-01-09T06:21:01.648Z,983.13
2023-01-09T06:22:01.717Z,983.10
2023-01-09T06:23:01.481Z,983.14
2023-01-09T06:24:01.575Z,983.14
2023-01-09T06:25:01.475Z,983.12
2023-01-09T06:26:01.515Z,983.13
2023-01-09T06:27:01.680Z,983.15
2023-01-09T06:28:01.428Z,983.12
2023-01-09T06:29:01.433Z,983.11
2023-01-09T06:30:01.692Z,983.10
2023-01-09T06:31:01.511Z,983.09
2023-01-09T06:32:01.530Z,983.18
2023-01-09T06:33:01.392Z,983.12
2023-01-09T06:34:01.489Z,983.12
2023-01-09T06:35:01.439Z,983.18
2023-01-09T06:36:01.372Z,983.16
2023-01-09T06:37:01.358Z,983.18
2023-01-09T06:38:01.382Z,983.15
2023-01-09T06:39:01.510Z,983.16
2023-01-09T06:40:03.219Z,983.16
2023-01-09T06:41:01.287Z,983.13
2023-01-09T06:42:01.648Z,983.16
2023-01-09T06:43:01.349Z,983.17
2023-01-09T06:44:01.276Z,983.17
2023-01-09T06:45:01.281Z,983.20
2023-01-09T06:46:08.367Z,983.18
2023-01-09T06:47:01.224Z,983.19
2023-01-09T06:48:01.271Z,983.19
2023-01-09T06:49:01.307Z,983.21
2023-01-09T06:50:01.262Z,983.16
2023-01-09T06:51:01.204Z,983.25
2023-01-09T06:52:01.208Z,983.22
2023-01-09T06:53:15.781Z,983.20
2023-01-09T06:54:01.238Z,983.22
2023-01-09T06:55:01.341Z,983.23
2023-01-09T06:56:01.186Z,983.22
2023-01-09T06:57:01.192Z,983.23
2023-01-09T06:58:03.768Z,983.24
2023-01-09T06:59:01.131Z,983.24
2023-01-09T07:00:01.273Z,983.28
2023-01-09T07:01:01.198Z,983.27
2023-01-09T07:02:01.182Z,983.24
2023-01-09T07:03:01.506Z,983.24
2023-01-09T07:04:01.950Z,983.24
2023-01-09T07:05:01.456Z,983.26
2023-01-09T07:06:02.718Z,983.23
2023-01-09T07:07:01.013Z,983.23
2023-01-09T07:08:01.003Z,983.27
2023-01-09T07:09:01.100Z,983.27
2023-01-09T07:10:01.080Z,983.22
2023-01-09T07:11:02.425Z,983.19
2023-01-09T07:12:01.332Z,983.20
2023-01-09T07:13:02.332Z,983.16
2023-01-09T07:14:01.111Z,983.24
2023-01-09T07:15:00.982Z,983.21
2023-01-09T07:16:00.970Z,983.20
2023-01-09T07:17:00.942Z,983.17
2023-01-09T07:18:00.960Z,983.20
2023-01-09T07:19:00.834Z,983.15
2023-01-09T07:20:00.822Z,983.17
2023-01-09T07:21:00.830Z,983.15
2023-01-09T07:22:01.558Z,983.16
2023-01-09T07:23:00.970Z,983.16
2023-01-09T07:24:01.662Z,983.14
2023-01-09T07:25:00.941Z,983.20
2023-01-09T07:26:00.778Z,983.18
2023-01-09T07:27:00.739Z,983.17
2023-01-09T07:28:00.736Z,983.15
2023-01-09T07:29:00.715Z,983.13
2023-01-09T07:30:00.720Z,983.15
2023-01-09T07:31:00.770Z,983.19
2023-01-09T07:32:00.715Z,983.24
2023-01-09T07:33:03.108Z,983.23
2023-01-09T07:34:00.682Z,983.26
2023-01-09T07:35:00.689Z,983.36
2023-01-09T07:36:00.674Z,983.31
2023-01-09T07:37:00.660Z,983.26
2023-01-09T07:38:00.670Z,983.25
2023-01-09T07:39:00.632Z,983.27
2023-01-09T07:40:00.687Z,983.27
2023-01-09T07:41:00.595Z,983.28
2023-01-09T07:42:00.605Z,983.29
2023-01-09T07:43:00.817Z,983.29
2023-01-09T07:44:00.582Z,983.34
2023-01-09T07:45:00.560Z,983.30
2023-01-09T07:46:00.910Z,983.27
2023-01-09T07:47:00.521Z,983.28
2023-01-09T07:48:00.551Z,983.30
2023-01-09T07:49:00.498Z,983.31
2023-01-09T07:50:00.540Z,983.33
2023-01-09T07:51:00.505Z,983.33
2023-01-09T07:52:00.513Z,983.33
2023-01-09T07:53:00.557Z,983.29
2023-01-09T07:54:00.460Z,983.27
2023-01-09T07:55:00.512Z,983.26
2023-01-09T07:56:00.494Z,983.27
2023-01-09T07:57:00.466Z,983.29
2023-01-09T07:58:00.581Z,983.28
2023-01-09T07:59:00.392Z,983.30
2023-01-09T08:00:00.397Z,983.31
2023-01-09T08:01:00.416Z,983.29
2023-01-09T08:02:00.401Z,983.30
2023-01-09T08:03:00.583Z,983.35
2023-01-09T08:04:00.362Z,983.31
2023-01-09T08:05:00.334Z,983.35
2023-01-09T08:06:00.350Z,983.36
2023-01-09T08:07:00.325Z,983.37
2023-01-09T08:08:00.331Z,983.39
2023-01-09T08:09:00.291Z,983.36
2023-01-09T08:10:00.292Z,983.42
2023-01-09T08:11:00.273Z,983.37
2023-01-09T08:12:00.370Z,983.37
2023-01-09T08:13:00.271Z,983.35
2023-01-09T08:14:00.241Z,983.38
2023-01-09T08:15:00.296Z,983.31
2023-01-09T08:16:00.273Z,983.33
2023-01-09T08:17:00.203Z,983.35
2023-01-09T08:18:00.632Z,983.33
2023-01-09T08:19:00.212Z,983.38
2023-01-09T08:20:00.203Z,983.35
2023-01-09T08:21:00.174Z,983.30
2023-01-09T08:22:00.769Z,983.40
2023-01-09T08:23:00.136Z,983.33
2023-01-09T08:24:00.150Z,983.35
2023-01-09T08:25:00.149Z,983.32
2023-01-09T08:26:00.122Z,983.34
2023-01-09T08:27:00.101Z,983.33
2023-01-09T08:28:00.124Z,983.38
2023-01-09T08:29:00.269Z,983.38
2023-01-09T08:30:00.174Z,983.38
2023-01-09T08:31:00.077Z,983.38
2023-01-09T08:32:00.334Z,983.37
2023-01-09T08:33:00.051Z,983.33
2023-01-09T08:34:00.117Z,983.42
2023-01-09T08:35:00.181Z,983.42
2023-01-09T08:36:00.079Z,983.43
2023-01-09T08:36:59.993Z,983.42
2023-01-09T08:38:00.012Z,983.40
2023-01-09T08:38:59.988Z,983.43
2023-01-09T08:39:59.997Z,983.39
2023-01-09T08:40:59.975Z,983.42
2023-01-09T08:41:59.934Z,983.41
2023-01-09T08:42:59.940Z,983.43
2023-01-09T08:43:59.939Z,983.42
2023-01-09T08:44:59.906Z,983.41
2023-01-09T08:46:00.252Z,983.42
2023-01-09T08:46:59.902Z,983.43
2023-01-09T08:47:59.917Z,983.46
2023-01-09T08:48:59.940Z,983.43
2023-01-09T08:50:00.151Z,983.46
2023-01-09T08:50:59.840Z,983.47
2023-01-09T08:51:59.832Z,983.48
2023-01-09T08:52:59.825Z,983.47
2023-01-09T08:53:59.837Z,983.51
2023-01-09T08:55:00.053Z,983.51
2023-01-09T08:55:59.897Z,983.58
2023-01-09T08:56:59.820Z,983.51
2023-01-09T08:57:59.788Z,983.41
2023-01-09T08:58:59.784Z,983.44
2023-01-09T08:59:59.763Z,983.46
2023-01-09T09:00:59.758Z,983.52
2023-01-09T09:01:59.840Z,983.52
2023-01-09T09:02:59.804Z,983.53
2023-01-09T09:03:59.717Z,983.56
2023-01-09T09:04:59.779Z,983.62
2023-01-09T09:05:59.689Z,983.62
2023-01-09T09:06:59.892Z,983.59
2023-01-09T09:07:59.664Z,983.59
2023-01-09T09:08:59.651Z,983.55
2023-01-09T09:09:59.644Z,983.58
2023-01-09T09:10:59.623Z,983.60
2023-01-09T09:11:59.640Z,983.56
2023-01-09T09:12:59.636Z,983.63
2023-01-09T09:13:59.603Z,983.51
2023-01-09T09:14:59.608Z,983.54
2023-01-09T09:15:59.618Z,983.48
2023-01-09T09:16:59.597Z,983.52
2023-01-09T09:18:01.269Z,983.48
2023-01-09T09:18:59.538Z,983.49
2023-01-09T09:19:59.592Z,983.49
2023-01-09T09:20:59.550Z,983.53
2023-01-09T09:21:59.519Z,983.45
2023-01-09T09:22:59.510Z,983.49
2023-01-09T09:23:59.516Z,983.52
2023-01-09T09:24:59.517Z,983.43
2023-01-09T09:26:02.129Z,983.59
2023-01-09T09:26:59.585Z,983.51
2023-01-09T09:27:59.520Z,983.53
2023-01-09T09:28:59.431Z,983.56
2023-01-09T09:29:59.434Z,983.56
2023-01-09T09:30:59.442Z,983.54
2023-01-09T09:32:00.881Z,983.49
2023-01-09T09:32:59.388Z,983.67
2023-01-09T09:33:59.401Z,983.55
2023-01-09T09:34:59.442Z,983.51
2023-01-09T09:35:59.371Z,983.58
2023-01-09T09:36:59.454Z,983.53
2023-01-09T09:37:59.376Z,983.58
2023-01-09T09:38:59.328Z,983.61
2023-01-09T09:40:01.518Z,983.51
2023-01-09T09:40:59.380Z,983.58
2023-01-09T09:41:59.371Z,983.70
2023-01-09T09:42:59.294Z,983.66
2023-01-09T09:43:59.296Z,983.62
2023-01-09T09:44:59.280Z,983.61
2023-01-09T09:45:59.322Z,983.64
2023-01-09T09:46:59.451Z,983.63
2023-01-09T09:47:59.240Z,983.67
2023-01-09T09:48:59.231Z,983.78
2023-01-09T09:49:59.224Z,983.68
2023-01-09T09:50:59.194Z,983.69
2023-01-09T09:51:59.197Z,983.77
2023-01-09T09:52:59.240Z,983.73
2023-01-09T09:53:59.176Z,983.76
2023-01-09T09:54:59.167Z,983.76
2023-01-09T09:55:59.551Z,983.76
2023-01-09T09:56:59.131Z,983.77
2023-01-09T09:57:59.127Z,983.73
2023-01-09T09:58:59.105Z,983.69
2023-01-09T09:59:59.106Z,983.74
2023-01-09T10:00:59.189Z,983.74
2023-01-09T10:01:59.492Z,983.90
2023-01-09T10:03:00.177Z,983.76
2023-01-09T10:03:59.124Z,983.93
2023-01-09T10:04:59.110Z,983.90
2023-01-09T10:05:59.038Z,983.88
2023-01-09T10:07:00.713Z,983.89
2023-01-09T10:08:03.511Z,983.85
2023-01-09T10:08:59.039Z,983.89
2023-01-09T10:09:59.004Z,983.87
2023-01-09T10:10:58.998Z,983.89
2023-01-09T10:11:58.982Z,983.86
2023-01-09T10:12:59.075Z,983.93
2023-01-09T10:13:58.981Z,983.92
2023-01-09T10:14:58.967Z,984.00
2023-01-09T10:15:59.042Z,983.97
2023-01-09T10:16:58.934Z,983.96
2023-01-09T10:17:59.357Z,983.92
2023-01-09T10:18:58.929Z,983.90
2023-01-09T10:19:59.113Z,983.83
2023-01-09T10:20:58.899Z,983.91
2023-01-09T10:21:58.893Z,983.90
2023-01-09T10:22:58.994Z,983.92
2023-01-09T10:23:58.917Z,984.00
2023-01-09T10:24:58.848Z,983.94
2023-01-09T10:25:58.845Z,983.94
2023-01-09T10:26:58.839Z,983.90
2023-01-09T10:27:58.887Z,983.97
2023-01-09T10:28:58.838Z,983.92
2023-01-09T10:29:58.782Z,983.89
2023-01-09T10:30:58.823Z,983.93
2023-01-09T10:31:58.760Z,983.91
2023-01-09T10:32:58.766Z,983.91
2023-01-09T10:33:58.738Z,983.90
2023-01-09T10:34:58.766Z,983.92
2023-01-09T10:35:58.757Z,983.90
2023-01-09T10:36:58.884Z,983.99
2023-01-09T10:37:58.747Z,983.93
2023-01-09T10:38:58.747Z,984.00
2023-01-09T10:39:58.699Z,983.93
2023-01-09T10:41:01.738Z,983.96
2023-01-09T10:41:58.741Z,983.90
2023-01-09T10:42:58.683Z,983.93
2023-01-09T10:43:58.624Z,984.08
2023-01-09T10:44:58.773Z,983.99
2023-01-09T10:45:58.679Z,983.94
2023-01-09T10:46:58.674Z,983.95
2023-01-09T10:47:58.616Z,983.97
2023-01-09T10:48:58.596Z,984.37
2023-01-09T10:49:58.576Z,983.98
2023-01-09T10:50:58.571Z,984.01
2023-01-09T10:51:58.588Z,984.07
2023-01-09T10:52:58.591Z,984.07
2023-01-09T10:53:58.531Z,984.04
2023-01-09T10:54:58.588Z,983.98
2023-01-09T10:55:58.551Z,984.08
2023-01-09T10:56:58.610Z,984.00
2023-01-09T10:57:58.489Z,984.23
2023-01-09T10:58:58.546Z,984.12
2023-01-09T10:59:58.461Z,984.10
2023-01-09T11:00:58.463Z,984.20
2023-01-09T11:01:58.487Z,984.22
2023-01-09T11:02:58.442Z,984.10
2023-01-09T11:03:58.452Z,984.25
2023-01-09T11:04:58.807Z,984.15
2023-01-09T11:05:58.444Z,984.23
2023-01-09T11:06:58.438Z,984.26
2023-01-09T11:07:58.412Z,984.25
2023-01-09T11:08:58.807Z,984.32
2023-01-09T11:09:58.372Z,984.30
2023-01-09T11:10:58.382Z,984.34
2023-01-09T11:11:58.418Z,984.30
2023-01-09T11:12:58.394Z,984.30
2023-01-09T11:13:58.334Z,984.22
2023-01-09T11:14:58.340Z,984.23
2023-01-09T11:15:58.322Z,984.29
2023-01-09T11:16:58.316Z,984.25
2023-01-09T11:17:58.293Z,984.29
2023-01-09T11:18:58.511Z,984.26
2023-01-09T11:19:58.261Z,984.24
2023-01-09T11:20:58.269Z,984.28
2023-01-09T11:21:58.268Z,984.23
2023-01-09T11:22:58.240Z,984.24
2023-01-09T11:23:58.239Z,984.34
2023-01-09T11:24:58.235Z,984.30
2023-01-09T11:25:58.191Z,984.45
2023-01-09T11:26:58.206Z,984.41
2023-01-09T11:27:58.169Z,984.42
2023-01-09T11:28:58.253Z,984.40
2023-01-09T11:29:58.176Z,984.37
2023-01-09T11:30:58.151Z,984.45
2023-01-09T11:31:58.187Z,984.35
2023-01-09T11:32:58.214Z,984.36
2023-01-09T11:33:58.119Z,984.31
2023-01-09T11:34:58.120Z,984.38
2023-01-09T11:35:58.161Z,984.24
2023-01-09T11:36:58.113Z,984.40
2023-01-09T11:37:58.225Z,984.36
2023-01-09T11:38:58.066Z,984.45
2023-01-09T11:39:58.067Z,984.44
2023-01-09T11:40:58.059Z,984.38
2023-01-09T11:41:58.018Z,984.47
2023-01-09T11:42:58.027Z,984.37
2023-01-09T11:43:58.026Z,984.38
2023-01-09T11:44:58.012Z,984.41
2023-01-09T11:46:01.642Z,984.41
2023-01-09T11:46:58.032Z,984.47
2023-01-09T11:47:57.964Z,984.54
2023-01-09T11:48:58.003Z,984.54
2023-01-09T11:49:57.950Z,984.56
2023-01-09T11:50:57.965Z,984.57
2023-01-09T11:51:57.970Z,984.55
2023-01-09T11:52:57.999Z,984.61
2023-01-09T11:53:58.004Z,984.56
2023-01-09T11:54:57.909Z,984.69
2023-01-09T11:55:57.932Z,984.55
2023-01-09T11:56:57.881Z,984.51
2023-01-09T11:57:57.842Z,984.65
2023-01-09T11:58:57.850Z,984.64
2023-01-09T11:59:57.855Z,984.65
2023-01-09T12:00:57.851Z,984.55
2023-01-09T12:01:57.921Z,984.59
2023-01-09T12:02:57.870Z,984.60
2023-01-09T12:03:57.817Z,984.59
2023-01-09T12:04:57.807Z,984.69
2023-01-09T12:05:57.793Z,984.65
2023-01-09T12:06:57.772Z,984.65
2023-01-09T12:07:57.757Z,984.68
2023-01-09T12:08:57.756Z,984.66
2023-01-09T12:09:57.729Z,984.70
2023-01-09T12:10:57.744Z,984.56
2023-01-09T12:11:57.695Z,984.65
2023-01-09T12:12:57.734Z,984.74
2023-01-09T12:13:57.691Z,984.71
2023-01-09T12:14:57.701Z,984.70
2023-01-09T12:15:57.737Z,984.73
2023-01-09T12:16:57.659Z,984.77
2023-01-09T12:17:57.658Z,984.86
2023-01-09T12:18:57.682Z,984.81
2023-01-09T12:19:57.620Z,984.76
2023-01-09T12:20:57.619Z,984.72
2023-01-09T12:21:57.594Z,984.76
2023-01-09T12:22:57.717Z,984.82
2023-01-09T12:23:57.583Z,984.82
2023-01-09T12:24:57.586Z,984.82
2023-01-09T12:25:57.548Z,984.80
2023-01-09T12:26:57.572Z,984.83
2023-01-09T12:27:57.569Z,984.82
2023-01-09T12:28:57.599Z,984.85
2023-01-09T12:29:57.521Z,984.86
2023-01-09T12:30:57.501Z,984.94
2023-01-09T12:31:57.504Z,984.94